Aberporth, United Kingdom
Current Conditions -  °F | °C
As of 7:50 PM on Sunday 25 Jan 2015 (Local Time) from EGOP Reporting Station
Overcast Overcast  
Wind Chill: 42°   Ceiling: 200
Heat Index: 48°   Visibility: 1.2mi
Dew Point: 48°   Wind: 18mph
Humidity: 100%   Direction: 230°SW
Pressure: 30.3"   Gusts: NA
Location:  52.13°N, 4.54°W
Report Text: EGOP 251950Z AUTO 23016KT 2000 // OVC002/// 09/09 Q1026
Loading
Personal Weather Stations






























Interactive Weather Map New forecast layout! Learn more

10-Day Weather Forecast

Advertisements
Track Severe Weather on mobile